Time;durP1;ratioP1;P1;durP2;ratioP2;P2;SDS_P1;SDS_P2;PMS_P1;PMS_P2;Temp;Humidity;BMP_temperature;BMP_pressure;BME280_temperature;BME280_humidity;BME280_pressure;Samples;Min_cycle;Max_cycle;Signal;HPM_P1;HPM_P2
2022/07/01 00:01:47;;;;;;;14.58;11.75;;;;;;;20.90;83.07;100106.00;1688023;84;21028;-80
2022/07/01 00:04:15;;;;;;;13.00;11.63;;;;;;;20.88;83.16;100105.77;1662626;85;21061;-80
2022/07/01 00:06:41;;;;;;;14.78;12.20;;;;;;;20.87;83.38;100102.76;1688012;84;21469;-79
2022/07/01 00:09:08;;;;;;;13.85;12.28;;;;;;;20.88;83.47;100106.61;1687803;84;21280;-79
2022/07/01 00:11:35;;;;;;;14.20;12.70;;;;;;;20.91;83.55;100105.50;1687898;84;21129;-80
2022/07/01 00:14:02;;;;;;;15.53;12.88;;;;;;;20.93;83.41;100097.73;1687449;84;21062;-79
2022/07/01 00:16:29;;;;;;;14.43;12.98;;;;;;;20.96;83.44;100107.30;1688021;84;21034;-79
2022/07/01 00:18:56;;;;;;;15.28;13.68;;;;;;;21.01;83.38;100110.91;1687731;83;21053;-80
2022/07/01 00:21:24;;;;;;;16.02;14.07;;;;;;;21.03;83.36;100105.77;1687896;84;21017;-79
2022/07/01 00:23:51;;;;;;;18.00;14.18;;;;;;;21.06;83.50;100106.00;1687807;84;21467;-80
2022/07/01 00:26:17;;;;;;;15.72;14.23;;;;;;;21.06;83.19;100116.66;1687931;84;21014;-79
2022/07/01 00:28:44;;;;;;;19.05;13.03;;;;;;;21.08;83.23;100119.55;1687661;84;20930;-80
2022/07/01 00:31:12;;;;;;;14.83;13.32;;;;;;;21.10;83.24;100118.95;1687638;84;21040;-79
2022/07/01 00:33:39;;;;;;;15.60;13.35;;;;;;;21.11;83.20;100115.30;1687967;84;21030;-79
2022/07/01 00:36:06;;;;;;;14.60;13.18;;;;;;;21.13;83.28;100120.02;1687952;84;21066;-80
2022/07/01 00:38:33;;;;;;;14.35;12.98;;;;;;;21.15;83.41;100114.56;1687711;84;20945;-79
2022/07/01 00:41:00;;;;;;;14.98;13.28;;;;;;;21.15;83.13;100115.41;1687874;84;21037;-79
2022/07/01 00:43:27;;;;;;;14.05;12.65;;;;;;;21.15;83.19;100111.90;1687900;84;21275;-80
2022/07/01 00:45:54;;;;;;;15.50;13.93;;;;;;;21.13;83.30;100108.02;1687783;84;21491;-79
2022/07/01 00:48:22;;;;;;;16.37;14.68;;;;;;;21.11;83.27;100103.30;1687975;84;21928;-80
2022/07/01 00:50:50;;;;;;;15.35;13.75;;;;;;;21.11;83.40;100100.63;1687942;84;21032;-80
2022/07/01 00:53:17;;;;;;;15.20;13.65;;;;;;;21.10;83.22;100094.13;1687594;84;21446;-79
2022/07/01 00:55:45;;;;;;;15.55;12.98;;;;;;;21.06;83.25;100094.88;1687919;84;21629;-79
2022/07/01 00:58:12;;;;;;;16.27;13.35;;;;;;;21.01;83.16;100094.92;1687832;84;21716;-79
2022/07/01 01:00:39;;;;;;;16.32;13.85;;;;;;;20.94;83.25;100092.76;1687911;84;21121;-79
2022/07/01 01:03:10;;;;;;;18.12;14.87;;;;;;;20.89;83.41;100088.30;1687742;84;21080;-80
2022/07/01 01:05:36;;;;;;;17.62;14.70;;;;;;;20.87;83.61;100096.09;1688060;84;21534;-79
2022/07/01 01:08:04;;;;;;;22.80;16.32;;;;;;;20.87;83.84;100105.42;1687677;84;21029;-79
2022/07/01 01:10:31;;;;;;;19.85;16.30;;;;;;;20.86;83.91;100111.21;1687897;84;21041;-79
2022/07/01 01:12:58;;;;;;;17.12;15.15;;;;;;;20.86;83.91;100109.88;1687811;84;21194;-79
2022/07/01 01:15:27;;;;;;;16.55;14.95;;;;;;;20.86;83.86;100115.70;1688053;84;21021;-79
2022/07/01 01:17:54;;;;;;;16.65;14.80;;;;;;;20.85;83.94;100116.69;1687983;84;21032;-79
2022/07/01 01:20:21;;;;;;;18.25;15.30;;;;;;;20.84;84.04;100117.64;1687809;84;21030;-84
2022/07/01 01:22:49;;;;;;;17.10;15.03;;;;;;;20.83;84.05;100119.47;1688086;84;21038;-80
2022/07/01 01:25:17;;;;;;;22.07;15.65;;;;;;;20.82;84.07;100122.28;1687802;84;21094;-79
2022/07/01 01:27:44;;;;;;;19.07;13.85;;;;;;;20.81;84.01;100117.91;1688066;84;21005;-79
2022/07/01 01:30:13;;;;;;;18.23;15.53;;;;;;;20.79;84.00;100112.72;1687764;84;21589;-79
2022/07/01 01:32:42;;;;;;;16.12;14.40;;;;;;;20.78;84.20;100108.84;1688025;84;20926;-80
2022/07/01 01:35:10;;;;;;;17.07;14.68;;;;;;;20.74;84.16;100107.42;1687897;84;21025;-79
2022/07/01 01:37:37;;;;;;;16.50;14.75;;;;;;;20.71;84.46;100107.20;1688026;84;21106;-79
2022/07/01 01:40:05;;;;;;;20.48;15.38;;;;;;;20.72;84.69;100109.71;1687874;84;21466;-79
2022/07/01 01:42:32;;;;;;;16.57;14.35;;;;;;;20.72;84.73;100107.05;1688068;84;21025;-79
2022/07/01 01:44:59;;;;;;;18.73;14.73;;;;;;;20.67;84.39;100103.08;1687787;84;21513;-79
2022/07/01 01:47:26;;;;;;;19.37;14.80;;;;;;;20.59;84.39;100097.55;1688017;84;21511;-79
2022/07/01 01:49:53;;;;;;;19.20;14.85;;;;;;;20.52;84.51;100102.53;1687910;84;21774;-79
2022/07/01 01:52:20;;;;;;;19.48;14.80;;;;;;;20.49;84.72;100100.96;1688072;84;21017;-79
2022/07/01 01:54:47;;;;;;;15.93;14.23;;;;;;;20.44;84.82;100095.17;1687844;84;21458;-79
2022/07/01 01:57:14;;;;;;;16.85;15.05;;;;;;;20.39;84.77;100110.67;1688166;84;21001;-79
2022/07/01 01:59:41;;;;;;;17.85;15.00;;;;;;;20.37;84.97;100105.12;1687774;84;21036;-79
2022/07/01 02:02:08;;;;;;;17.37;15.30;;;;;;;20.32;85.04;100107.34;1687965;84;21037;-80
2022/07/01 02:04:35;;;;;;;16.80;15.13;;;;;;;20.27;85.11;100105.88;1687872;84;21029;-79
2022/07/01 02:07:04;;;;;;;19.15;15.78;;;;;;;20.22;85.30;100108.08;1672070;84;21049;-79
2022/07/01 02:09:31;;;;;;;18.05;14.75;;;;;;;20.19;85.36;100108.33;1688151;84;21089;-79
2022/07/01 02:11:58;;;;;;;16.00;14.38;;;;;;;20.16;85.67;100107.74;1687898;84;21541;-79
2022/07/01 02:14:25;;;;;;;19.70;15.60;;;;;;;20.13;85.80;100108.00;1688019;84;21109;-79
2022/07/01 02:16:55;;;;;;;19.50;17.07;;;;;;;20.11;85.81;100101.45;1687802;84;21049;-79
2022/07/01 02:19:22;;;;;;;18.40;16.50;;;;;;;20.09;85.92;100107.88;1687856;84;21065;-79
2022/07/01 02:21:52;;;;;;;18.90;16.57;;;;;;;20.09;86.35;100106.05;1687875;84;21044;-79
2022/07/01 02:24:20;;;;;;;19.92;17.32;;;;;;;20.12;86.61;100108.95;1687993;84;22196;-81
2022/07/01 02:26:47;;;;;;;18.67;16.77;;;;;;;20.16;86.99;100106.41;1688038;84;21106;-79
2022/07/01 02:29:14;;;;;;;19.70;17.55;;;;;;;20.18;86.76;100107.98;1687812;84;21436;-79
2022/07/01 02:31:41;;;;;;;20.75;18.52;;;;;;;20.18;86.99;100114.63;1690461;84;21487;-79
2022/07/01 02:34:08;;;;;;;18.92;17.00;;;;;;;20.22;87.24;100108.56;1689156;84;21080;-79
2022/07/01 02:36:35;;;;;;;20.48;17.87;;;;;;;20.21;87.11;100109.05;1688074;84;21022;-79
2022/07/01 02:39:03;;;;;;;20.55;18.32;;;;;;;20.22;87.28;100112.55;1687711;84;21128;-79
2022/07/01 02:41:30;;;;;;;18.87;17.02;;;;;;;20.24;87.16;100110.13;1687993;84;21060;-79
2022/07/01 02:43:57;;;;;;;20.10;18.12;;;;;;;20.21;86.99;100110.39;1687745;84;21044;-81
2022/07/01 02:46:24;;;;;;;19.73;17.70;;;;;;;20.22;87.28;100108.08;1688093;84;21101;-79
2022/07/01 02:48:51;;;;;;;20.50;18.50;;;;;;;20.21;87.06;100104.23;1687734;84;22032;-80
2022/07/01 02:51:18;;;;;;;20.85;17.48;;;;;;;20.20;87.20;100107.84;1687991;84;21112;-79
2022/07/01 02:53:45;;;;;;;18.48;16.37;;;;;;;20.20;87.31;100100.73;1687799;84;21045;-79
2022/07/01 02:56:12;;;;;;;19.65;17.07;;;;;;;20.16;87.06;100097.94;1687706;84;21048;-80
2022/07/01 02:58:39;;;;;;;19.75;17.65;;;;;;;20.14;87.06;100107.86;1688135;84;21506;-79
2022/07/01 03:01:07;;;;;;;19.40;16.50;;;;;;;20.10;87.11;100109.09;1687706;84;21021;-80
2022/07/01 03:03:34;;;;;;;19.40;16.37;;;;;;;20.08;87.08;100112.36;1688079;84;21108;-79
2022/07/01 03:06:01;;;;;;;20.95;17.82;;;;;;;20.03;87.22;100116.70;1687819;84;20941;-79
2022/07/01 03:08:28;;;;;;;21.55;18.40;;;;;;;20.04;87.29;100110.92;1688026;84;21032;-80
2022/07/01 03:10:55;;;;;;;20.95;18.55;;;;;;;20.02;87.46;100112.37;1687808;84;21029;-79
2022/07/01 03:13:22;;;;;;;21.52;17.87;;;;;;;20.01;87.43;100108.52;1688148;84;21201;-79
2022/07/01 03:15:49;;;;;;;21.12;18.92;;;;;;;20.01;87.81;100111.18;1687829;84;21112;-79
2022/07/01 03:18:16;;;;;;;20.80;18.45;;;;;;;20.04;88.02;100110.92;1687878;84;21502;-79
2022/07/01 03:20:43;;;;;;;23.10;20.20;;;;;;;20.04;88.14;100113.09;1695815;83;21285;-86
2022/07/01 03:23:10;;;;;;;22.55;19.07;;;;;;;20.09;88.37;100109.20;1697091;83;21113;-79
2022/07/01 03:25:37;;;;;;;23.18;19.57;;;;;;;20.12;88.37;100103.62;1697200;82;21122;-79
2022/07/01 03:28:04;;;;;;;23.27;19.02;;;;;;;20.14;88.42;100106.52;1697200;83;21911;-80
2022/07/01 03:30:31;;;;;;;22.55;19.52;;;;;;;20.17;88.55;100110.75;1696888;83;21025;-79
2022/07/01 03:32:58;;;;;;;23.73;18.07;;;;;;;20.19;88.60;100103.00;1697216;82;21040;-79
2022/07/01 03:35:45;;;;;;;23.32;19.42;;;;;;;20.20;88.48;100106.05;1696997;83;21491;-80
2022/07/01 03:38:09;;;;;;;21.30;18.62;;;;;;;20.20;88.50;100115.82;1679866;83;21032;-79
2022/07/01 03:40:36;;;;;;;24.92;19.07;;;;;;;20.19;88.53;100119.47;1697031;83;21120;-79
2022/07/01 03:43:03;;;;;;;21.68;19.23;;;;;;;20.17;88.78;100120.91;1697206;82;21029;-82
2022/07/01 03:45:31;;;;;;;24.32;19.60;;;;;;;20.19;88.89;100124.30;1696890;83;21056;-81
2022/07/01 03:47:58;;;;;;;22.32;19.92;;;;;;;20.22;89.09;100126.70;1669156;84;21573;-80
2022/07/01 03:50:26;;;;;;;28.45;20.72;;;;;;;20.26;89.10;100116.67;1640030;87;21143;-80
2022/07/01 03:54:29;;;;;;;24.27;21.68;;;;;;;20.31;89.22;100117.61;1640173;87;21203;-80
2022/07/01 03:55:22;;;;;;;24.30;21.00;;;;;;;20.35;89.44;100119.06;1635920;87;21076;-80
2022/07/01 03:57:49;;;;;;;24.63;22.00;;;;;;;20.41;89.65;100117.22;1640261;85;20937;-80
2022/07/01 04:00:18;;;;;;;24.23;21.73;;;;;;;20.46;89.66;100119.02;1700211;82;21021;-81
2022/07/01 04:02:45;;;;;;;24.00;21.05;;;;;;;20.51;89.67;100119.48;1697718;83;21033;-80
2022/07/01 04:05:12;;;;;;;23.90;21.62;;;;;;;20.56;89.90;100120.45;1700290;83;21133;-81
2022/07/01 04:07:39;;;;;;;23.47;21.15;;;;;;;20.62;89.91;100118.14;1700408;83;21136;-80
2022/07/01 04:10:07;;;;;;;24.40;21.62;;;;;;;20.70;90.04;100118.80;1700262;82;21008;-80
2022/07/01 04:12:34;;;;;;;24.15;21.62;;;;;;;20.78;90.19;100115.01;1700532;83;21054;-79
2022/07/01 04:15:03;;;;;;;25.43;23.00;;;;;;;20.85;90.34;100109.53;1700237;83;21503;-79
2022/07/01 04:17:30;;;;;;;25.52;22.82;;;;;;;20.92;90.40;100107.18;1700166;83;21234;-80
2022/07/01 04:19:57;;;;;;;25.10;22.20;;;;;;;20.98;90.17;100112.02;1700126;83;21014;-80
2022/07/01 04:22:36;;;;;;;23.05;20.85;;;;;;;21.04;89.98;100110.64;1699852;82;21503;-80
2022/07/01 04:25:05;;;;;;;24.00;21.55;;;;;;;21.09;89.97;100113.73;1700671;83;21001;-80
2022/07/01 04:27:32;;;;;;;24.00;21.48;;;;;;;21.15;89.99;100111.90;1699376;82;21131;-82
2022/07/01 04:29:59;;;;;;;23.90;20.77;;;;;;;21.21;90.06;100107.37;1690044;83;21168;-81
2022/07/01 04:32:26;;;;;;;23.92;21.48;;;;;;;21.29;90.04;100118.21;1700219;82;21419;-80
2022/07/01 04:34:53;;;;;;;24.98;22.32;;;;;;;21.36;89.97;100116.69;1696921;83;20978;-81
2022/07/01 04:37:20;;;;;;;24.47;22.10;;;;;;;21.44;89.89;100118.72;1700212;83;21490;-81
2022/07/01 04:39:47;;;;;;;25.52;22.75;;;;;;;21.52;89.90;100113.56;1692620;82;21270;-82
2022/07/01 04:42:15;;;;;;;21.95;19.95;;;;;;;21.60;89.68;100116.91;1700198;83;21081;-81
2022/07/01 04:44:42;;;;;;;23.07;20.35;;;;;;;21.65;88.82;100122.69;1700297;82;21015;-81
2022/07/01 04:47:09;;;;;;;22.22;19.98;;;;;;;21.72;88.66;100121.64;1700160;83;21013;-82
2022/07/01 04:49:36;;;;;;;23.40;21.10;;;;;;;21.78;88.22;100117.96;1700558;82;21416;-81
2022/07/01 04:52:04;;;;;;;22.15;20.08;;;;;;;21.86;88.09;100119.09;1700227;83;21562;-81
2022/07/01 04:54:31;;;;;;;21.73;19.42;;;;;;;21.95;87.93;100106.25;1700474;82;22021;-82
2022/07/01 04:56:58;;;;;;;23.27;20.85;;;;;;;22.02;87.81;100104.23;1700154;83;21034;-81
2022/07/01 04:59:24;;;;;;;23.57;19.82;;;;;;;22.11;87.67;100101.72;1700583;83;21081;-81
2022/07/01 05:01:52;;;;;;;20.68;18.57;;;;;;;22.15;87.08;100112.50;1700387;83;21040;-81
2022/07/01 05:04:19;;;;;;;19.85;17.82;;;;;;;22.20;86.92;100112.96;1700203;83;21093;-81
2022/07/01 05:06:47;;;;;;;19.75;17.75;;;;;;;22.25;86.64;100114.70;1700316;83;21927;-81
2022/07/01 05:09:14;;;;;;;21.33;19.07;;;;;;;22.31;86.53;100111.96;1700094;82;21041;-81
2022/07/01 05:11:41;;;;;;;21.25;19.23;;;;;;;22.36;86.44;100112.39;1717234;82;21062;-88
2022/07/01 05:14:09;;;;;;;21.82;18.55;;;;;;;22.40;86.24;100105.80;1696738;82;21063;-81
2022/07/01 05:16:36;;;;;;;20.65;18.55;;;;;;;22.44;86.14;100107.20;1693781;82;21283;-79
2022/07/01 05:22:01;;;;;;;18.50;16.55;;;;;;;22.52;85.86;100095.81;1695086;82;21017;-79
2022/07/01 05:24:31;;;;;;;18.23;16.42;;;;;;;22.57;85.47;100095.74;1697171;82;21041;-81
2022/07/01 05:27:01;;;;;;;19.05;16.95;;;;;;;22.62;85.14;100093.99;1697449;82;21048;-81
2022/07/01 05:29:29;;;;;;;18.15;16.48;;;;;;;22.67;84.87;100092.58;1697136;82;21536;-81
2022/07/01 05:31:56;;;;;;;19.07;16.82;;;;;;;22.73;84.85;100094.34;1697082;83;21137;-79
2022/07/01 05:34:23;;;;;;;18.40;16.42;;;;;;;22.80;84.69;100104.79;1697014;82;21001;-86
2022/07/01 05:36:50;;;;;;;20.02;16.95;;;;;;;22.84;84.45;100104.37;1697065;82;21036;-79
2022/07/01 05:39:20;;;;;;;18.37;16.57;;;;;;;22.88;84.23;100103.08;1697160;82;21010;-79
2022/07/01 05:41:47;;;;;;;18.50;16.60;;;;;;;22.95;84.11;100099.36;1697349;82;20969;-81
2022/07/01 05:44:17;;;;;;;21.70;16.10;;;;;;;23.02;84.08;100106.33;1697172;82;21115;-78
2022/07/01 05:46:50;;;;;;;18.05;16.25;;;;;;;23.08;83.94;100105.74;1696974;82;21024;-80
2022/07/01 05:49:19;;;;;;;17.25;15.60;;;;;;;23.14;83.89;100110.03;1697104;83;21088;-80
2022/07/01 05:51:46;;;;;;;16.82;15.18;;;;;;;23.22;83.70;100102.60;1696918;82;21005;-81
2022/07/01 05:54:13;;;;;;;16.62;14.93;;;;;;;23.29;83.39;100101.05;1697159;83;21629;-81
2022/07/01 05:56:44;;;;;;;15.98;14.45;;;;;;;23.35;83.05;100099.62;1697018;82;21923;-83
2022/07/01 05:59:16;;;;;;;15.63;14.10;;;;;;;23.42;82.40;100101.20;1697140;83;21017;-80
2022/07/01 06:01:46;;;;;;;15.53;14.05;;;;;;;23.45;82.03;100099.59;1696980;82;21001;-79
2022/07/01 06:04:19;;;;;;;15.72;14.07;;;;;;;23.49;81.53;100101.81;1697208;83;21526;-83
2022/07/01 06:06:48;;;;;;;15.03;13.53;;;;;;;23.55;81.25;100106.56;1697001;83;21545;-80
2022/07/01 06:09:15;;;;;;;16.70;13.98;;;;;;;23.58;80.86;100091.58;1697321;82;21103;-79
2022/07/01 06:11:42;;;;;;;15.28;13.68;;;;;;;23.65;80.65;100092.31;1696996;82;21047;-84
2022/07/01 06:14:09;;;;;;;16.25;14.23;;;;;;;23.69;80.26;100093.69;1697291;82;21104;-83
2022/07/01 06:16:36;;;;;;;15.78;14.25;;;;;;;23.74;80.17;100092.28;1697066;82;21076;-84
2022/07/01 06:19:06;;;;;;;15.60;14.07;;;;;;;23.80;80.22;100088.16;1697326;82;21012;-81
2022/07/01 06:21:33;;;;;;;15.55;13.95;;;;;;;23.87;80.15;100073.70;1696919;83;21128;-88
2022/07/01 06:24:00;;;;;;;16.10;14.43;;;;;;;23.95;79.93;100071.13;1697103;83;20957;-88
2022/07/01 06:26:27;;;;;;;19.10;13.95;;;;;;;24.01;79.63;100070.00;1697005;83;21517;-87
2022/07/01 06:28:54;;;;;;;16.75;14.80;;;;;;;24.10;79.48;100073.60;1697260;83;21029;-89
2022/07/01 06:31:23;;;;;;;18.02;13.88;;;;;;;24.16;79.24;100076.17;1679767;83;21036;-87
2022/07/01 06:33:52;;;;;;;15.53;13.40;;;;;;;24.24;79.03;100081.10;1697330;83;21197;-90
2022/07/01 06:36:19;;;;;;;15.83;14.15;;;;;;;24.30;78.81;100076.97;1697011;82;21569;-88
2022/07/01 06:38:46;;;;;;;16.52;13.75;;;;;;;24.35;78.60;100081.37;1697070;82;21032;-87
2022/07/01 06:41:28;;;;;;;17.57;13.70;;;;;;;24.39;78.30;100073.89;1696926;83;20956;-87
2022/07/01 06:43:57;;;;;;;15.98;12.93;;;;;;;24.43;78.14;100069.42;1696954;82;21025;-85
2022/07/01 06:46:25;;;;;;;14.45;12.98;;;;;;;24.48;77.89;100072.48;1697398;82;21958;-85
2022/07/01 06:48:53;;;;;;;16.73;14.55;;;;;;;24.54;77.80;100069.69;1696900;83;21535;-84
2022/07/01 06:51:20;;;;;;;15.15;13.55;;;;;;;24.60;77.68;100075.76;1697145;82;21111;-85
2022/07/01 06:53:47;;;;;;;14.53;13.03;;;;;;;24.67;77.24;100073.31;1697128;82;21009;-84
2022/07/01 06:56:14;;;;;;;16.67;13.72;;;;;;;24.75;77.12;100065.34;1697271;83;21013;-84
2022/07/01 06:58:42;;;;;;;15.75;14.10;;;;;;;24.82;77.13;100056.99;1697075;83;21369;-85
2022/07/01 07:01:10;;;;;;;14.98;13.45;;;;;;;24.91;76.98;100056.07;1697106;83;21036;-83
2022/07/01 07:03:38;;;;;;;19.35;13.98;;;;;;;25.01;76.81;100057.80;1696907;83;21550;-85
2022/07/01 07:06:05;;;;;;;16.12;13.48;;;;;;;25.09;76.67;100057.34;1697140;82;21127;-86
2022/07/01 07:08:32;;;;;;;15.00;13.50;;;;;;;25.18;76.24;100057.41;1696992;82;21310;-85
2022/07/01 07:11:00;;;;;;;15.58;13.32;;;;;;;25.27;75.71;100059.12;1697166;82;21499;-86
2022/07/01 07:13:27;;;;;;;16.48;14.28;;;;;;;25.33;75.57;100060.69;1696931;82;20997;-85
2022/07/01 07:15:54;;;;;;;17.95;14.35;;;;;;;25.41;75.30;100057.17;1697223;82;21024;-85
2022/07/01 07:18:21;;;;;;;14.33;12.95;;;;;;;25.49;75.21;100058.55;1696876;83;21043;-85
2022/07/01 07:20:48;;;;;;;18.07;13.68;;;;;;;25.56;74.97;100057.42;1696894;83;21104;-86
2022/07/01 07:23:15;;;;;;;17.50;15.70;;;;;;;25.63;74.99;100057.60;1687212;84;21123;-85
2022/07/01 07:25:42;;;;;;;16.97;14.85;;;;;;;25.70;74.81;100070.73;1687701;84;21020;-85
2022/07/01 07:28:09;;;;;;;19.80;13.28;;;;;;;25.78;74.58;100066.73;1687766;84;21064;-86
2022/07/01 07:30:36;;;;;;;13.50;12.25;;;;;;;25.86;74.35;100064.09;1687853;84;20994;-86
2022/07/01 07:33:04;;;;;;;14.00;12.55;;;;;;;25.96;74.33;100066.63;1687810;84;21099;-86
2022/07/01 07:35:31;;;;;;;13.32;12.03;;;;;;;26.03;73.62;100063.63;1687946;84;21126;-84
2022/07/01 07:37:58;;;;;;;15.63;13.30;;;;;;;26.07;73.29;100060.94;1687680;84;21092;-85
2022/07/01 07:40:25;;;;;;;14.03;12.50;;;;;;;26.13;73.18;100058.92;1687930;84;21076;-85
2022/07/01 07:42:54;;;;;;;13.65;11.80;;;;;;;26.20;73.30;100056.44;1687744;84;21494;-85
2022/07/01 07:45:21;;;;;;;14.20;12.77;;;;;;;26.28;73.38;100057.78;1688416;84;22060;-85
2022/07/01 07:47:49;;;;;;;13.68;12.28;;;;;;;26.42;73.29;100057.63;1687690;84;21957;-85
2022/07/01 07:50:17;;;;;;;14.20;12.80;;;;;;;26.52;72.76;100060.99;1688149;84;20917;-84
2022/07/01 07:52:44;;;;;;;13.70;12.40;;;;;;;26.59;72.14;100066.55;1687627;84;21028;-85
2022/07/01 07:55:11;;;;;;;14.30;12.28;;;;;;;26.63;71.94;100068.75;1688053;84;21001;-85
2022/07/01 07:57:39;;;;;;;13.85;12.45;;;;;;;26.71;72.10;100074.59;1687846;84;21045;-86
2022/07/01 08:00:10;;;;;;;13.62;12.25;;;;;;;26.82;72.09;100072.91;1687985;84;21106;-85
2022/07/01 08:02:41;;;;;;;13.20;11.90;;;;;;;26.90;71.45;100076.92;1687589;84;21064;-85
2022/07/01 08:05:10;;;;;;;14.38;12.90;;;;;;;26.96;70.93;100079.44;1687879;84;21317;-87
2022/07/01 08:07:39;;;;;;;13.48;12.07;;;;;;;27.11;71.20;100083.12;1687871;84;26518;-87
2022/07/01 08:10:09;;;;;;;13.75;11.95;;;;;;;27.25;70.64;100081.60;1688004;84;21040;-87
2022/07/01 08:12:36;;;;;;;13.90;11.28;;;;;;;27.40;70.20;100080.36;1687790;84;22022;-86
2022/07/01 08:15:05;;;;;;;13.65;11.65;;;;;;;27.56;69.76;100089.73;1687796;84;21009;-86
2022/07/01 08:17:32;;;;;;;;;;;;;;;27.71;69.09;100084.47;1690387;84;21014;-85
2022/07/01 08:20:00;;;;;;;13.55;10.55;;;;;;;27.80;67.61;100082.08;1688066;84;20178;-86
2022/07/01 08:22:27;;;;;;;13.68;11.12;;;;;;;27.90;67.83;100086.40;1687616;84;21040;-86
2022/07/01 08:24:54;;;;;;;12.78;10.72;;;;;;;28.01;67.66;100077.91;1687555;84;21127;-86
2022/07/01 08:27:22;;;;;;;17.55;11.43;;;;;;;28.10;66.96;100076.87;1687639;84;21045;-86
2022/07/01 08:29:49;;;;;;;12.40;11.15;;;;;;;28.18;66.90;100074.09;1687842;84;21037;-86
2022/07/01 08:32:16;;;;;;;11.83;10.70;;;;;;;28.26;66.67;100083.98;1687631;84;21025;-87
2022/07/01 08:34:44;;;;;;;11.88;10.48;;;;;;;28.35;66.19;100080.70;1687689;84;21557;-86
2022/07/01 08:37:11;;;;;;;12.90;10.90;;;;;;;28.41;65.72;100073.27;1687716;84;21959;-85
2022/07/01 08:39:38;;;;;;;13.30;10.95;;;;;;;28.44;65.56;100075.64;1687823;84;21053;-87
2022/07/01 08:42:08;;;;;;;12.18;11.08;;;;;;;28.47;65.41;100068.53;1687760;84;22011;-86
2022/07/01 08:44:35;;;;;;;13.32;11.38;;;;;;;28.52;65.23;100064.78;1685288;83;21041;-86
2022/07/01 08:47:03;;;;;;;12.55;11.25;;;;;;;28.58;65.33;100075.36;1687650;84;21041;-87
2022/07/01 08:49:32;;;;;;;11.73;10.63;;;;;;;28.61;64.78;100068.25;1688042;84;21127;-86
2022/07/01 08:51:59;;;;;;;10.75;9.55;;;;;;;28.63;64.42;100071.09;1687746;84;21013;-86
2022/07/01 08:54:26;;;;;;;11.33;10.20;;;;;;;28.66;64.28;100069.38;1687966;84;21045;-87
2022/07/01 08:56:53;;;;;;;11.35;10.28;;;;;;;28.68;64.17;100063.78;1687724;84;20997;-87
2022/07/01 08:59:26;;;;;;;11.88;10.43;;;;;;;28.71;63.97;100065.28;1687866;84;21060;-85
2022/07/01 09:02:05;;;;;;;13.98;10.23;;;;;;;28.75;63.74;100059.86;1694132;83;21118;-87
2022/07/01 09:04:33;;;;;;;13.58;10.18;;;;;;;28.80;63.43;100069.08;1652623;85;21052;-89
2022/07/01 09:07:09;;;;;;;11.03;10.03;;;;;;;28.85;63.05;100071.20;1630021;88;21506;-87
2022/07/01 09:09:39;;;;;;;11.33;9.83;;;;;;;28.92;62.94;100072.16;1629399;87;21054;-88
2022/07/01 09:12:07;;;;;;;13.28;10.28;;;;;;;29.01;62.96;100079.66;1621984;86;21023;-87
2022/07/01 09:14:35;;;;;;;15.95;10.15;;;;;;;29.08;62.51;100078.77;1619656;87;21941;-87
2022/07/01 09:17:06;;;;;;;14.65;10.40;;;;;;;29.19;62.52;100073.95;1622158;86;21490;-87
2022/07/01 09:19:39;;;;;;;13.43;10.58;;;;;;;29.26;62.13;100068.11;1631088;87;21083;-86
2022/07/01 09:22:07;;;;;;;11.53;10.32;;;;;;;29.35;61.75;100067.84;1654838;86;21040;-88
2022/07/01 09:24:37;;;;;;;15.93;10.15;;;;;;;29.44;61.52;100060.48;1662379;84;21055;-88
2022/07/01 09:27:16;;;;;;;11.38;10.20;;;;;;;29.52;61.30;100059.55;1665646;84;21128;-89
2022/07/01 09:29:52;;;;;;;12.58;9.58;;;;;;;29.58;61.02;100056.91;1665626;86;20989;-88
2022/07/01 09:32:22;;;;;;;12.10;10.82;;;;;;;29.70;60.81;100052.41;1696884;82;21056;-88
2022/07/01 09:34:52;;;;;;;12.40;10.10;;;;;;;29.80;60.55;100043.50;1697199;82;21032;-88
2022/07/01 09:37:24;;;;;;;14.35;10.48;;;;;;;29.91;60.22;100039.46;1699607;84;21037;-89
2022/07/01 09:39:57;;;;;;;11.55;10.25;;;;;;;29.98;60.06;100037.13;1680935;83;21248;-88
2022/07/01 09:42:27;;;;;;;11.57;10.40;;;;;;;30.07;59.84;100037.86;1700300;83;21029;-88
2022/07/01 09:45:07;;;;;;;13.05;10.90;;;;;;;30.18;59.27;100045.45;1700487;83;21008;-88
2022/07/01 09:47:42;;;;;;;11.28;10.15;;;;;;;30.23;58.90;100047.07;1700331;83;21022;-88
2022/07/01 09:50:14;;;;;;;12.70;10.30;;;;;;;30.27;58.76;100044.84;1709436;82;21026;-85
2022/07/01 09:52:44;;;;;;;13.15;10.80;;;;;;;30.37;58.82;100042.62;1687275;84;21137;-88
2022/07/01 09:55:15;;;;;;;15.25;10.28;;;;;;;30.52;58.84;100044.44;1660470;85;20997;-87
2022/07/01 09:57:43;;;;;;;11.73;10.40;;;;;;;30.62;58.51;100034.09;1663987;85;21060;-86
2022/07/01 10:00:11;;;;;;;11.08;10.03;;;;;;;30.71;58.54;100036.13;1692949;82;21020;-87
2022/07/01 10:02:39;;;;;;;11.45;10.32;;;;;;;30.82;58.57;100037.83;1693574;83;21542;-87
2022/07/01 10:05:12;;;;;;;12.05;10.85;;;;;;;30.95;58.29;100035.71;1700477;83;22057;-88
2022/07/01 10:08:22;;;;;;;12.20;10.93;;;;;;;31.07;58.05;100029.25;1703632;82;21483;-87
2022/07/01 10:11:13;;;;;;;13.03;10.80;;;;;;;31.20;57.95;100036.59;1658619;84;21449;-88
2022/07/01 10:13:42;;;;;;;11.90;10.80;;;;;;;31.30;57.01;100028.94;1637393;85;21060;-87
2022/07/01 10:16:11;;;;;;;11.93;10.83;;;;;;;31.38;57.10;100025.27;1680770;83;21052;-88
2022/07/01 10:18:38;;;;;;;12.88;10.48;;;;;;;31.50;56.81;100016.34;1684425;82;21083;-88
2022/07/01 10:21:06;;;;;;;11.65;10.55;;;;;;;31.63;56.69;100018.80;1687181;83;21048;-87
2022/07/01 10:23:43;;;;;;;12.93;11.05;;;;;;;31.72;56.55;100004.02;1695618;82;21131;-88
2022/07/01 10:26:12;;;;;;;11.80;10.50;;;;;;;31.85;56.34;100002.70;1687714;84;21007;-87
2022/07/01 10:28:43;;;;;;;12.33;11.18;;;;;;;31.99;55.65;100006.30;1688029;84;21093;-87
2022/07/01 10:31:17;;;;;;;12.15;10.63;;;;;;;32.04;54.97;100003.81;1687668;84;21086;-86
2022/07/01 10:33:52;;;;;;;11.33;10.23;;;;;;;32.10;54.81;100002.97;1687665;84;21013;-87
2022/07/01 10:36:33;;;;;;;14.15;10.88;;;;;;;32.27;55.35;99995.27;1687587;84;21021;-87
2022/07/01 10:39:10;;;;;;;11.75;10.63;;;;;;;32.46;55.00;99994.98;1691360;84;21478;-87
2022/07/01 10:41:57;;;;;;;11.90;10.60;;;;;;;32.43;54.39;99987.23;1696258;83;22040;-87
2022/07/01 10:44:27;;;;;;;13.48;10.90;;;;;;;32.34;54.34;99988.47;1673193;84;21113;-87
2022/07/01 10:47:06;;;;;;;14.60;11.40;;;;;;;32.19;54.16;99990.88;1676384;83;21031;-87
2022/07/01 10:49:53;;;;;;;11.57;10.38;;;;;;;32.05;54.48;99999.22;1673706;84;21542;-88
2022/07/01 10:52:20;;;;;;;11.43;10.20;;;;;;;32.03;54.54;100011.61;1673013;83;21097;-86
2022/07/01 10:55:00;;;;;;;12.28;10.98;;;;;;;32.04;54.63;100023.28;1675063;84;21009;-87
2022/07/01 10:57:34;;;;;;;15.98;11.20;;;;;;;31.98;54.15;100034.42;1672905;83;22061;-87
2022/07/01 11:00:07;;;;;;;12.68;11.28;;;;;;;31.87;53.82;100048.05;1676413;83;21051;-87
2022/07/01 11:02:37;;;;;;;12.20;10.98;;;;;;;31.74;53.79;100035.81;1672834;84;21511;-88
2022/07/01 11:05:12;;;;;;;13.05;11.60;;;;;;;31.61;53.76;100026.28;1675871;83;21557;-86
2022/07/01 11:07:46;;;;;;;12.60;11.20;;;;;;;31.41;53.75;100027.56;1673116;83;21033;-87
2022/07/01 11:10:18;;;;;;;11.57;10.55;;;;;;;31.29;54.08;100026.76;1676332;84;21493;-87
2022/07/01 11:12:48;;;;;;;11.97;10.75;;;;;;;31.24;54.75;100016.22;1672928;84;21003;-88
2022/07/01 11:15:17;;;;;;;12.63;11.40;;;;;;;31.15;54.82;100006.08;1675484;84;21084;-87
2022/07/01 11:17:47;;;;;;;12.45;11.18;;;;;;;31.01;54.61;100006.52;1674234;84;21049;-87
2022/07/01 11:20:15;;;;;;;12.37;11.10;;;;;;;30.89;55.03;100004.04;1663219;83;21038;-86